createdAt,value
2023-03-24T00:01:07.763Z,99019.84
2023-03-24T00:03:34.704Z,99012.16
2023-03-24T00:06:03.619Z,99028.72
2023-03-24T00:08:36.721Z,99005.06
2023-03-24T00:11:07.318Z,99025.84
2023-03-24T00:13:38.434Z,99026.81
2023-03-24T00:16:08.335Z,99005.75
2023-03-24T00:18:37.095Z,99034.66
2023-03-24T00:21:04.898Z,99048.34
2023-03-24T00:23:35.351Z,99037.78
2023-03-24T00:26:09.412Z,99051.13
2023-03-24T00:28:37.172Z,99044.28
2023-03-24T00:31:06.395Z,99052.03
2023-03-24T00:33:35.299Z,99040.91
2023-03-24T00:36:04.020Z,99043.53
2023-03-24T00:38:30.679Z,99044.88
2023-03-24T00:40:58.986Z,99050.00
2023-03-24T00:43:25.654Z,99014.59
2023-03-24T00:46:02.127Z,99046.72
2023-03-24T00:48:30.369Z,99038.03
2023-03-24T00:50:57.165Z,99036.41
2023-03-24T00:53:26.063Z,99038.38
2023-03-24T00:55:52.786Z,99033.28
2023-03-24T00:58:21.857Z,99018.16
2023-03-24T01:00:58.221Z,99028.53
2023-03-24T01:03:27.531Z,99041.06
2023-03-24T01:05:57.864Z,99037.78
2023-03-24T01:08:25.731Z,99041.81
2023-03-24T01:10:55.729Z,99030.41
2023-03-24T01:13:26.194Z,99024.94
2023-03-24T01:15:53.889Z,99038.38
2023-03-24T01:18:21.588Z,99035.75
2023-03-24T01:20:51.384Z,99026.44
2023-03-24T01:23:21.827Z,99037.59
2023-03-24T01:25:50.273Z,99048.16
2023-03-24T01:28:23.517Z,99040.97
2023-03-24T01:30:53.359Z,99037.66
2023-03-24T01:33:21.082Z,99044.16
2023-03-24T01:35:48.294Z,99063.25
2023-03-24T01:38:15.732Z,99054.63
2023-03-24T01:40:46.661Z,99065.00
2023-03-24T01:43:22.735Z,99059.09
2023-03-24T01:46:14.263Z,99067.78
2023-03-24T01:48:49.813Z,99064.66
2023-03-24T01:51:20.252Z,99062.44
2023-03-24T01:53:59.979Z,99078.78
2023-03-24T01:56:27.348Z,99055.09
2023-03-24T01:58:58.214Z,99094.47
2023-03-24T02:01:30.015Z,99091.16
2023-03-24T02:03:59.034Z,99089.41
2023-03-24T02:06:26.279Z,99099.47
2023-03-24T02:08:56.902Z,99098.47
2023-03-24T02:11:26.862Z,99105.78
2023-03-24T02:13:53.888Z,99105.94
2023-03-24T02:16:43.687Z,99102.66
2023-03-24T02:19:19.461Z,99121.50
2023-03-24T02:22:07.590Z,99120.50
2023-03-24T02:25:15.526Z,99124.28
2023-03-24T02:28:20.627Z,99115.66
2023-03-24T02:30:50.480Z,99117.81
2023-03-24T02:34:01.807Z,99124.31
2023-03-24T02:37:02.599Z,99123.72
2023-03-24T02:39:29.181Z,99121.09
2023-03-24T02:42:20.218Z,99128.72
2023-03-24T02:45:05.605Z,99128.00
2023-03-24T02:47:45.441Z,99115.28
2023-03-24T02:50:21.244Z,99137.41
2023-03-24T02:53:05.763Z,99146.19
2023-03-24T02:55:54.184Z,99139.88
2023-03-24T02:58:32.251Z,99127.84
2023-03-24T03:01:14.161Z,99129.72
2023-03-24T03:03:45.801Z,99137.25
2023-03-24T03:06:26.065Z,99130.31
2023-03-24T03:08:53.905Z,99124.63
2023-03-24T03:11:20.766Z,99136.81
2023-03-24T03:14:13.447Z,99149.22
2023-03-24T03:16:45.503Z,99145.66
2023-03-24T03:19:19.769Z,99146.63
2023-03-24T03:21:48.828Z,99165.16
2023-03-24T03:24:20.264Z,99173.03
2023-03-24T03:26:49.113Z,99170.72
2023-03-24T03:29:22.220Z,99195.72
2023-03-24T03:31:53.244Z,99200.03
2023-03-24T03:34:34.680Z,99200.78
2023-03-24T03:37:10.561Z,99181.25
2023-03-24T03:39:50.550Z,99184.56
2023-03-24T03:42:17.294Z,99185.47
2023-03-24T03:44:44.259Z,99200.19
2023-03-24T03:47:11.112Z,99181.88
2023-03-24T03:49:37.878Z,99195.56
2023-03-24T03:52:05.455Z,99222.19
2023-03-24T03:54:34.321Z,99211.97
2023-03-24T03:57:01.293Z,99194.88
2023-03-24T03:59:34.248Z,99218.22
2023-03-24T04:02:27.000Z,99223.28
2023-03-24T04:05:07.032Z,99223.16
2023-03-24T04:07:33.748Z,99218.50
2023-03-24T04:10:09.715Z,99216.06
2023-03-24T04:12:59.914Z,99213.50
2023-03-24T04:15:34.035Z,99226.22
2023-03-24T04:18:19.545Z,99233.41
2023-03-24T04:20:49.968Z,99220.97
2023-03-24T04:24:05.361Z,99220.59
2023-03-24T04:26:50.611Z,99215.81
2023-03-24T04:29:30.088Z,99220.19
2023-03-24T04:32:02.545Z,99214.78
2023-03-24T04:34:35.240Z,99216.56
2023-03-24T04:37:28.328Z,99221.56
2023-03-24T04:39:59.109Z,99230.72
2023-03-24T04:42:33.604Z,99212.16
2023-03-24T04:45:00.567Z,99225.34
2023-03-24T04:47:32.042Z,99249.06
2023-03-24T04:50:03.172Z,99236.28
2023-03-24T04:52:29.886Z,99236.44
2023-03-24T04:54:56.665Z,99224.03
2023-03-24T04:57:23.384Z,99225.47
2023-03-24T04:59:50.113Z,99253.84
2023-03-24T05:02:16.805Z,99230.19
2023-03-24T05:04:43.555Z,99242.97
2023-03-24T05:07:10.214Z,99235.56
2023-03-24T05:09:36.962Z,99273.13
2023-03-24T05:12:03.811Z,99296.78
2023-03-24T05:14:30.566Z,99392.41
2023-03-24T05:16:57.305Z,99475.66
2023-03-24T05:19:23.988Z,99509.72
2023-03-24T05:21:50.737Z,99516.75
2023-03-24T05:24:17.420Z,99471.34
2023-03-24T05:26:44.182Z,99484.28
2023-03-24T05:29:11.027Z,99443.69
2023-03-24T05:31:37.646Z,99432.50
2023-03-24T05:34:04.266Z,99349.53
2023-03-24T05:36:31.373Z,99394.81
2023-03-24T05:38:58.098Z,99386.13
2023-03-24T05:41:24.819Z,99373.59
2023-03-24T05:43:51.622Z,99374.47
2023-03-24T05:46:18.362Z,99386.72
2023-03-24T05:48:45.034Z,99392.75
2023-03-24T05:51:11.698Z,99396.25
2023-03-24T05:53:38.345Z,99365.41
2023-03-24T05:56:06.148Z,99365.06
2023-03-24T05:58:34.740Z,99344.31
2023-03-24T06:01:07.183Z,99326.81
2023-03-24T06:03:38.886Z,99319.84
2023-03-24T06:06:08.941Z,99313.47
2023-03-24T06:08:36.436Z,99305.47
2023-03-24T06:11:03.886Z,99297.25
2023-03-24T06:13:31.281Z,99302.97
2023-03-24T06:16:00.365Z,99277.81
2023-03-24T06:18:30.692Z,99295.38
2023-03-24T06:20:57.462Z,99253.69
2023-03-24T06:23:25.989Z,99262.91
2023-03-24T06:25:53.773Z,99253.13
2023-03-24T06:28:21.046Z,99282.03
2023-03-24T06:30:49.174Z,99281.94
2023-03-24T06:33:16.107Z,99287.66
2023-03-24T06:35:43.016Z,99288.81
2023-03-24T06:38:10.060Z,99278.00
2023-03-24T06:40:36.692Z,99287.28
2023-03-24T06:43:03.623Z,99299.88
2023-03-24T06:45:31.232Z,99265.06
2023-03-24T06:47:58.060Z,99277.81
2023-03-24T06:50:33.172Z,99274.16
2023-03-24T06:53:00.155Z,99286.38
2023-03-24T06:55:27.205Z,99295.56
2023-03-24T06:57:54.199Z,99272.00
2023-03-24T07:00:21.163Z,99285.06
2023-03-24T07:02:47.833Z,99286.94
2023-03-24T07:05:14.758Z,99300.56
2023-03-24T07:10:13.238Z,99277.50
2023-03-24T07:12:40.506Z,99280.72
2023-03-24T07:15:08.448Z,99275.69
2023-03-24T07:17:35.994Z,99253.84
2023-03-24T07:20:05.536Z,99265.19
2023-03-24T07:22:32.639Z,99275.44
2023-03-24T07:25:01.644Z,99274.00
2023-03-24T07:27:28.311Z,99254.63
2023-03-24T07:29:54.962Z,99265.09
2023-03-24T07:32:21.724Z,99252.69
2023-03-24T07:34:49.691Z,99254.41
2023-03-24T07:37:16.492Z,99261.50
2023-03-24T07:39:43.322Z,99246.22
2023-03-24T07:42:11.829Z,99233.03
2023-03-24T07:44:39.692Z,99249.41
2023-03-24T07:47:06.522Z,99238.38
2023-03-24T07:49:33.198Z,99207.44
2023-03-24T07:51:59.865Z,99193.50
2023-03-24T07:54:27.279Z,99239.09
2023-03-24T07:56:54.045Z,99216.59
2023-03-24T07:59:20.872Z,99214.22
2023-03-24T08:01:51.576Z,99207.34
2023-03-24T08:04:21.869Z,99201.34
2023-03-24T08:06:49.096Z,99188.69
2023-03-24T08:09:16.321Z,99200.41
2023-03-24T08:11:43.072Z,99198.47
2023-03-24T08:14:09.812Z,99182.66
2023-03-24T08:16:38.938Z,99201.31
2023-03-24T08:19:06.448Z,99205.56
2023-03-24T08:21:33.361Z,99188.38
2023-03-24T08:24:01.688Z,99203.03
2023-03-24T08:26:28.349Z,99199.22
2023-03-24T08:28:55.137Z,99104.78
2023-03-24T08:31:22.003Z,99174.25
2023-03-24T08:33:48.687Z,99153.38
2023-03-24T08:36:15.563Z,99173.81
2023-03-24T08:38:42.212Z,99147.47
2023-03-24T08:41:09.097Z,99158.78
2023-03-24T08:43:37.633Z,99122.66
2023-03-24T08:46:08.010Z,99143.75
2023-03-24T08:48:37.228Z,99128.00
2023-03-24T08:51:13.684Z,99085.22
2023-03-24T08:53:40.724Z,99099.59
2023-03-24T08:56:07.955Z,99082.00
2023-03-24T08:58:34.670Z,99087.09
2023-03-24T09:01:02.106Z,99080.69
2023-03-24T09:03:28.937Z,99056.03
2023-03-24T09:05:59.660Z,99060.38
2023-03-24T09:08:27.994Z,99053.38
2023-03-24T09:10:54.796Z,99063.38
2023-03-24T09:13:21.560Z,99048.63
2023-03-24T09:15:54.237Z,99036.84
2023-03-24T09:18:21.946Z,99019.56
2023-03-24T09:20:49.050Z,99039.84
2023-03-24T09:23:16.410Z,99029.78
2023-03-24T09:25:43.093Z,99021.22
2023-03-24T09:28:09.809Z,99016.31
2023-03-24T09:30:36.573Z,99003.53
2023-03-24T09:33:04.124Z,98995.59
2023-03-24T09:35:31.461Z,98993.78
2023-03-24T09:37:58.376Z,98993.91
2023-03-24T09:40:27.681Z,98981.00
2023-03-24T09:43:00.161Z,98985.72
2023-03-24T09:45:27.864Z,98981.53
2023-03-24T09:48:05.952Z,98976.91
2023-03-24T09:50:40.643Z,98963.53
2023-03-24T09:53:14.057Z,98960.63
2023-03-24T09:55:41.666Z,98936.63
2023-03-24T09:58:10.623Z,98955.84
2023-03-24T10:00:37.522Z,98968.81
2023-03-24T10:03:17.201Z,98975.13
2023-03-24T10:06:21.886Z,98964.31
2023-03-24T10:09:13.644Z,98961.00
2023-03-24T10:12:29.685Z,98960.59
2023-03-24T10:18:23.595Z,98933.31
2023-03-24T10:21:14.294Z,98937.91
2023-03-24T10:23:46.631Z,98925.78
2023-03-24T10:26:47.392Z,98888.75
2023-03-24T10:29:29.129Z,98919.53
2023-03-24T10:32:12.735Z,98922.31
2023-03-24T10:34:40.149Z,98913.03
2023-03-24T10:37:07.518Z,98917.00
2023-03-24T10:39:44.188Z,98907.72
2023-03-24T10:42:22.176Z,98897.13
2023-03-24T10:44:50.255Z,98896.19
2023-03-24T10:47:19.531Z,98899.50
2023-03-24T10:49:59.468Z,98898.97
2023-03-24T10:52:26.568Z,98892.53
2023-03-24T10:54:59.087Z,98886.94
2023-03-24T10:57:26.959Z,98886.72
2023-03-24T10:59:56.113Z,98891.97
2023-03-24T11:02:30.089Z,98889.97
2023-03-24T11:05:02.584Z,98894.44
2023-03-24T11:07:49.656Z,98887.88
2023-03-24T11:10:27.025Z,98883.31
2023-03-24T11:12:53.631Z,98876.91
2023-03-24T11:15:34.589Z,98860.44
2023-03-24T11:18:08.710Z,98878.06
2023-03-24T11:20:40.884Z,98880.00
2023-03-24T11:23:10.868Z,98851.38
2023-03-24T11:25:39.759Z,98850.78
2023-03-24T11:28:09.630Z,98871.03
2023-03-24T11:30:47.556Z,98864.47
2023-03-24T11:33:36.318Z,98852.06
2023-03-24T11:36:29.036Z,98859.00
2023-03-24T11:39:09.047Z,98857.47
2023-03-24T11:41:37.230Z,98845.16
2023-03-24T11:44:24.081Z,98851.44
2023-03-24T11:46:57.514Z,98830.13
2023-03-24T11:49:28.017Z,98845.19
2023-03-24T11:51:55.453Z,98842.97
2023-03-24T11:54:29.001Z,98837.16
2023-03-24T11:56:59.062Z,98829.84
2023-03-24T11:59:37.703Z,98824.56
2023-03-24T12:02:23.256Z,98822.34
2023-03-24T12:04:55.910Z,98824.22
2023-03-24T12:07:40.795Z,98816.59
2023-03-24T12:10:32.083Z,98825.69
2023-03-24T12:13:29.972Z,98824.72
2023-03-24T12:16:28.933Z,98819.69
2023-03-24T12:19:30.769Z,98808.69
2023-03-24T12:22:00.037Z,98810.28
2023-03-24T12:25:01.900Z,98787.59
2023-03-24T12:27:57.263Z,98772.06
2023-03-24T12:30:30.868Z,98812.69
2023-03-24T12:33:15.911Z,98805.72
2023-03-24T12:36:07.282Z,98790.06
2023-03-24T12:39:19.059Z,98803.06
2023-03-24T12:41:48.526Z,98805.53
2023-03-24T12:44:52.599Z,98788.38
2023-03-24T12:47:48.007Z,98778.13
2023-03-24T12:50:51.093Z,98777.06
2023-03-24T12:53:26.945Z,98787.06
2023-03-24T12:56:14.220Z,98790.13
2023-03-24T12:58:55.099Z,98783.78
2023-03-24T13:01:42.081Z,98765.59
2023-03-24T13:04:22.086Z,98773.34
2023-03-24T13:06:56.683Z,98770.94
2023-03-24T13:09:32.040Z,98761.84
2023-03-24T13:12:03.809Z,98772.78
2023-03-24T13:14:34.633Z,98768.56
2023-03-24T13:17:06.650Z,98770.56
2023-03-24T13:19:34.585Z,98762.84
2023-03-24T13:22:02.828Z,98750.84
2023-03-24T13:24:29.783Z,98765.59
2023-03-24T13:26:58.335Z,98757.03
2023-03-24T13:29:50.083Z,98762.72
2023-03-24T13:32:25.658Z,98756.38
2023-03-24T13:35:02.976Z,98756.38
2023-03-24T13:37:37.399Z,98749.34
2023-03-24T13:40:13.776Z,98744.47
2023-03-24T13:42:46.462Z,98741.25
2023-03-24T13:45:38.148Z,98743.81
2023-03-24T13:48:16.695Z,98745.09
2023-03-24T13:50:55.436Z,98754.06
2023-03-24T13:53:40.415Z,98736.34
2023-03-24T13:56:08.494Z,98746.16
2023-03-24T13:58:49.509Z,98739.72
2023-03-24T14:01:20.070Z,98747.56
2023-03-24T14:04:18.586Z,98752.06
2023-03-24T14:06:51.214Z,98760.56
2023-03-24T14:09:33.021Z,98743.66
2023-03-24T14:12:02.640Z,98741.03
2023-03-24T14:14:30.556Z,98738.53
2023-03-24T14:17:06.281Z,98738.78
2023-03-24T14:19:42.013Z,98737.81
2023-03-24T14:22:31.009Z,98740.50
2023-03-24T14:25:17.091Z,98739.09
2023-03-24T14:27:52.039Z,98730.03
2023-03-24T14:30:18.544Z,98740.63
2023-03-24T14:32:50.604Z,98716.78
2023-03-24T14:35:33.391Z,98738.56
2023-03-24T14:38:06.814Z,98730.72
2023-03-24T14:40:34.819Z,98730.03
2023-03-24T14:43:13.723Z,98737.72
2023-03-24T14:45:55.841Z,98739.66
2023-03-24T14:49:05.778Z,98729.66
2023-03-24T14:51:39.146Z,98725.59
2023-03-24T14:54:22.402Z,98706.06
2023-03-24T14:56:53.211Z,98713.72
2023-03-24T14:59:28.004Z,98725.72
2023-03-24T15:02:02.001Z,98721.94
2023-03-24T15:04:28.782Z,98715.13
2023-03-24T15:06:55.433Z,98708.56
2023-03-24T15:09:22.308Z,98726.97
2023-03-24T15:11:49.249Z,98729.78
2023-03-24T15:14:23.006Z,98715.41
2023-03-24T15:16:56.164Z,98706.91
2023-03-24T15:19:28.144Z,98715.41
2023-03-24T15:22:09.647Z,98721.81
2023-03-24T15:24:37.599Z,98716.66
2023-03-24T15:27:04.216Z,98728.81
2023-03-24T15:29:30.950Z,98708.53
2023-03-24T15:31:57.611Z,98687.56
2023-03-24T15:34:30.293Z,98731.97
2023-03-24T15:37:05.407Z,98713.53
2023-03-24T15:39:36.997Z,98722.63
2023-03-24T15:42:17.654Z,98731.97
2023-03-24T15:44:44.756Z,98723.91
2023-03-24T15:47:17.544Z,98724.13
2023-03-24T15:50:06.150Z,98727.41
2023-03-24T15:52:35.171Z,98735.81
2023-03-24T15:55:23.082Z,98739.59
2023-03-24T15:57:49.720Z,98734.06
2023-03-24T16:00:19.928Z,98734.50
2023-03-24T16:02:48.286Z,98727.22
2023-03-24T16:05:24.306Z,98743.53
2023-03-24T16:08:04.502Z,98735.44
2023-03-24T16:10:40.731Z,98754.78
2023-03-24T16:13:21.545Z,98757.97
2023-03-24T16:15:54.107Z,98756.56
2023-03-24T16:18:24.315Z,98739.53
2023-03-24T16:20:52.493Z,98767.41
2023-03-24T16:23:19.129Z,98734.41
2023-03-24T16:25:45.895Z,98771.81
2023-03-24T16:28:20.317Z,98758.47
2023-03-24T16:30:50.270Z,98777.22
2023-03-24T16:33:17.242Z,98761.13
2023-03-24T16:35:45.416Z,98760.97
2023-03-24T16:38:15.294Z,98752.59
2023-03-24T16:40:46.445Z,98785.28
2023-03-24T16:43:13.491Z,98741.28
2023-03-24T16:45:40.105Z,98765.56
2023-03-24T16:48:07.072Z,98782.00
2023-03-24T16:50:36.703Z,98784.34
2023-03-24T16:53:06.570Z,98780.13
2023-03-24T16:55:33.264Z,98768.94
2023-03-24T16:57:59.968Z,98785.50
2023-03-24T17:00:27.657Z,98774.22
2023-03-24T17:02:54.459Z,98789.00
2023-03-24T17:05:24.543Z,98787.44
2023-03-24T17:07:51.896Z,98794.91
2023-03-24T17:10:18.638Z,98782.56
2023-03-24T17:12:46.056Z,98781.28
2023-03-24T17:15:23.429Z,98790.03
2023-03-24T17:17:50.281Z,98788.34
2023-03-24T17:20:17.136Z,98792.19
2023-03-24T17:22:45.372Z,98796.72
2023-03-24T17:25:14.721Z,98787.97
2023-03-24T17:27:41.565Z,98785.56
2023-03-24T17:30:11.202Z,98793.84
2023-03-24T17:32:37.902Z,98769.44
2023-03-24T17:35:04.977Z,98789.91
2023-03-24T17:37:31.730Z,98792.63
2023-03-24T17:39:58.531Z,98801.50
2023-03-24T17:42:26.680Z,98764.63
2023-03-24T17:44:53.271Z,98789.00
2023-03-24T17:47:19.995Z,98795.44
2023-03-24T17:49:47.544Z,98794.34
2023-03-24T17:52:14.230Z,98798.22
2023-03-24T17:54:40.960Z,98800.34
2023-03-24T17:57:07.828Z,98798.75
2023-03-24T17:59:34.644Z,98791.91
2023-03-24T18:02:01.476Z,98810.00
2023-03-24T18:04:28.137Z,98800.69
2023-03-24T18:06:55.192Z,98828.91
2023-03-24T18:09:22.133Z,98840.78
2023-03-24T18:11:48.805Z,98847.69
2023-03-24T18:14:15.736Z,98837.72
2023-03-24T18:16:42.370Z,98834.09
2023-03-24T18:19:09.065Z,98837.00
2023-03-24T18:21:35.922Z,98852.63
2023-03-24T18:24:02.693Z,98875.63
2023-03-24T18:26:29.782Z,98869.06
2023-03-24T18:28:56.512Z,98881.28
2023-03-24T18:31:26.232Z,98882.50
2023-03-24T18:33:54.302Z,98895.13
2023-03-24T18:36:26.587Z,98899.69
2023-03-24T18:39:00.481Z,98914.59
2023-03-24T18:41:28.491Z,98896.09
2023-03-24T18:43:55.756Z,98900.16
2023-03-24T18:46:22.880Z,98904.50
2023-03-24T18:48:52.845Z,98918.41
2023-03-24T18:51:21.512Z,98908.44
2023-03-24T18:53:48.996Z,98890.94
2023-03-24T18:56:19.371Z,98913.97
2023-03-24T18:58:46.281Z,98926.09
2023-03-24T19:01:15.124Z,98923.22
2023-03-24T19:03:44.165Z,98909.75
2023-03-24T19:06:15.210Z,98931.25
2023-03-24T19:08:47.872Z,98929.31
2023-03-24T19:11:15.901Z,98936.97
2023-03-24T19:13:46.228Z,98923.44
2023-03-24T19:16:13.226Z,98918.88
2023-03-24T19:18:40.039Z,98931.34
2023-03-24T19:21:07.493Z,98909.16
2023-03-24T19:23:34.495Z,98910.94
2023-03-24T19:26:01.737Z,98914.56
2023-03-24T19:28:30.454Z,98909.03
2023-03-24T19:30:58.121Z,98912.81
2023-03-24T19:33:25.636Z,98918.94
2023-03-24T19:35:53.186Z,98929.25
2023-03-24T19:38:24.056Z,98934.81
2023-03-24T19:41:10.990Z,98937.72
2023-03-24T19:43:38.016Z,98927.38
2023-03-24T19:46:05.727Z,98937.56
2023-03-24T19:48:32.839Z,98939.38
2023-03-24T19:50:59.493Z,98927.09
2023-03-24T19:53:26.873Z,98931.81
2023-03-24T19:55:57.301Z,98936.03
2023-03-24T19:58:24.128Z,98932.88
2023-03-24T20:00:51.962Z,98923.97
2023-03-24T20:03:18.789Z,98936.22
2023-03-24T20:05:45.633Z,98941.09
2023-03-24T20:08:12.363Z,98943.56
2023-03-24T20:10:42.277Z,98941.72
2023-03-24T20:13:09.233Z,98949.41
2023-03-24T20:15:36.110Z,98962.59
2023-03-24T20:18:02.898Z,98957.88
2023-03-24T20:20:29.706Z,98966.50
2023-03-24T20:22:56.489Z,98964.69
2023-03-24T20:25:23.682Z,98975.13
2023-03-24T20:27:50.366Z,98973.56
2023-03-24T20:30:18.731Z,98965.16
2023-03-24T20:32:45.520Z,98957.97
2023-03-24T20:35:12.348Z,98958.81
2023-03-24T20:37:39.197Z,98966.09
2023-03-24T20:40:07.149Z,98961.16
2023-03-24T20:42:33.823Z,98955.22
2023-03-24T20:45:01.014Z,98954.13
2023-03-24T20:47:27.795Z,98969.72
2023-03-24T20:49:54.612Z,98964.66
2023-03-24T20:52:23.110Z,98952.19
2023-03-24T20:54:50.721Z,98961.22
2023-03-24T20:57:18.149Z,98968.78
2023-03-24T20:59:47.367Z,98945.22
2023-03-24T21:02:15.580Z,98956.13
2023-03-24T21:04:42.556Z,98948.31
2023-03-24T21:07:09.306Z,98947.88
2023-03-24T21:09:36.281Z,98959.59
2023-03-24T21:12:03.426Z,98930.13
2023-03-24T21:14:30.773Z,98951.38
2023-03-24T21:16:57.525Z,98968.69
2023-03-24T21:19:24.464Z,98951.59
2023-03-24T21:21:51.207Z,98940.13
2023-03-24T21:24:18.238Z,98926.88
2023-03-24T21:26:46.443Z,98961.88
2023-03-24T21:29:13.342Z,98958.31
2023-03-24T21:31:41.837Z,98918.09
2023-03-24T21:34:08.689Z,98938.16
2023-03-24T21:36:38.299Z,98938.34
2023-03-24T21:39:07.131Z,98927.06
2023-03-24T21:41:33.996Z,98912.44
2023-03-24T21:44:04.100Z,98912.09
2023-03-24T21:46:33.760Z,98908.22
2023-03-24T21:49:01.027Z,98918.78
2023-03-24T21:51:36.924Z,98942.09
2023-03-24T21:54:06.740Z,98940.81
2023-03-24T21:56:34.831Z,98929.09
2023-03-24T21:59:01.685Z,98923.22
2023-03-24T22:01:28.519Z,98891.75
2023-03-24T22:03:56.045Z,98919.28
2023-03-24T22:06:22.887Z,98909.28
2023-03-24T22:08:49.636Z,98892.97
2023-03-24T22:11:18.694Z,98893.03
2023-03-24T22:13:46.423Z,98896.63
2023-03-24T22:16:13.410Z,98877.03
2023-03-24T22:18:40.154Z,98900.53
2023-03-24T22:21:08.661Z,98898.47
2023-03-24T22:23:39.303Z,98906.97
2023-03-24T22:26:11.211Z,98904.88
2023-03-24T22:28:38.430Z,98879.78
2023-03-24T22:31:13.214Z,98896.84
2023-03-24T22:33:40.607Z,98871.72
2023-03-24T22:36:08.330Z,98860.81
2023-03-24T22:38:35.491Z,98857.03
2023-03-24T22:41:05.507Z,98861.09
2023-03-24T22:43:32.804Z,98862.19
2023-03-24T22:45:59.553Z,98842.88
2023-03-24T22:48:26.182Z,98852.00
2023-03-24T22:50:53.102Z,98841.31
2023-03-24T22:53:20.455Z,98847.47
2023-03-24T22:55:47.217Z,98823.34
2023-03-24T22:58:14.290Z,98837.75
2023-03-24T23:00:42.312Z,98825.69
2023-03-24T23:03:09.780Z,98826.84
2023-03-24T23:05:44.335Z,98823.84
2023-03-24T23:08:14.257Z,98802.97
2023-03-24T23:10:43.222Z,98818.81
2023-03-24T23:13:11.216Z,98811.47
2023-03-24T23:15:39.168Z,98818.94
2023-03-24T23:18:06.044Z,98816.41
2023-03-24T23:20:33.126Z,98803.44
2023-03-24T23:23:01.413Z,98812.34
2023-03-24T23:25:31.194Z,98808.81
2023-03-24T23:27:58.060Z,98794.91
2023-03-24T23:30:24.819Z,98813.16
2023-03-24T23:32:51.741Z,98801.03
2023-03-24T23:35:18.705Z,98789.63
2023-03-24T23:37:45.443Z,98802.56
2023-03-24T23:40:14.997Z,98810.03
2023-03-24T23:42:46.769Z,98786.56
2023-03-24T23:45:15.257Z,98777.94
2023-03-24T23:47:43.883Z,98759.84
2023-03-24T23:50:11.519Z,98764.13
2023-03-24T23:52:41.445Z,98756.63
2023-03-24T23:55:10.361Z,98718.25
2023-03-24T23:57:38.961Z,98747.25
